createdAt,value
2023-05-24T00:03:35.676Z,4.18
2023-05-24T00:06:10.432Z,4.72
2023-05-24T00:08:45.611Z,4.53
2023-05-24T00:11:12.807Z,4.30
2023-05-24T00:13:44.987Z,4.95
2023-05-24T00:16:22.385Z,4.40
2023-05-24T00:18:50.697Z,4.57
2023-05-24T00:21:23.515Z,4.90
2023-05-24T00:23:57.902Z,4.45
2023-05-24T00:26:31.942Z,4.28
2023-05-24T00:29:01.333Z,4.47
2023-05-24T00:31:35.934Z,4.20
2023-05-24T00:34:05.101Z,4.22
2023-05-24T00:36:37.636Z,4.68
2023-05-24T00:39:22.678Z,4.47
2023-05-24T00:41:50.072Z,4.63
2023-05-24T00:44:16.848Z,4.40
2023-05-24T00:46:48.775Z,4.85
2023-05-24T00:49:23.332Z,4.25
2023-05-24T00:51:55.339Z,3.70
2023-05-24T00:54:23.009Z,4.85
2023-05-24T00:59:41.288Z,4.43
2023-05-24T01:02:10.719Z,4.15
2023-05-24T01:04:38.139Z,4.20
2023-05-24T01:10:33.289Z,4.78
2023-05-24T01:19:12.255Z,4.50
2023-05-24T01:21:57.294Z,4.55
2023-05-24T01:25:02.490Z,4.32
2023-05-24T01:27:37.626Z,3.97
2023-05-24T01:30:06.508Z,4.30
2023-05-24T01:32:36.764Z,4.40
2023-05-24T01:35:06.628Z,4.32
2023-05-24T01:37:36.661Z,4.30
2023-05-24T01:40:15.778Z,4.78
2023-05-24T01:43:17.204Z,4.85
2023-05-24T01:46:22.691Z,4.65
2023-05-24T01:49:12.789Z,4.43
2023-05-24T01:51:53.763Z,4.32
2023-05-24T01:54:29.085Z,4.25
2023-05-24T01:57:02.267Z,4.70
2023-05-24T02:02:28.268Z,4.60
2023-05-24T02:05:11.489Z,4.57
2023-05-24T02:07:45.749Z,4.97
2023-05-24T02:10:30.876Z,4.38
2023-05-24T02:13:00.899Z,4.40
2023-05-24T02:15:38.357Z,4.20
2023-05-24T02:18:15.847Z,4.53
2023-05-24T02:20:52.829Z,4.75
2023-05-24T02:27:12.729Z,4.85
2023-05-24T02:29:57.740Z,4.47
2023-05-24T02:35:11.621Z,4.57
2023-05-24T02:37:42.420Z,4.20
2023-05-24T02:40:16.293Z,4.57
2023-05-24T02:42:43.194Z,4.90
2023-05-24T02:45:13.664Z,5.50
2023-05-24T02:47:52.688Z,4.90
2023-05-24T02:50:32.063Z,5.10
2023-05-24T02:52:59.188Z,5.28
2023-05-24T02:55:39.226Z,5.30
2023-05-24T02:58:09.497Z,4.88
2023-05-24T03:00:45.325Z,5.60
2023-05-24T03:03:16.287Z,4.75
2023-05-24T03:05:44.773Z,4.70
2023-05-24T03:08:26.465Z,4.93
2023-05-24T03:10:59.914Z,5.28
2023-05-24T03:13:39.592Z,5.43
2023-05-24T03:16:20.905Z,4.95
2023-05-24T03:18:53.394Z,4.50
2023-05-24T03:21:21.844Z,5.05
2023-05-24T03:23:57.746Z,5.03
2023-05-24T03:29:07.470Z,5.60
2023-05-24T03:31:35.282Z,4.60
2023-05-24T03:34:03.337Z,5.85
2023-05-24T03:36:44.768Z,5.28
2023-05-24T03:39:17.289Z,5.40
2023-05-24T03:41:53.250Z,5.70
2023-05-24T03:44:21.775Z,6.32
2023-05-24T03:46:49.447Z,4.63
2023-05-24T03:49:16.772Z,5.03
2023-05-24T03:51:56.123Z,5.20
2023-05-24T03:54:23.328Z,4.95
2023-05-24T03:57:03.855Z,4.97
2023-05-24T03:59:41.986Z,5.05
2023-05-24T04:02:10.535Z,5.72
2023-05-24T04:04:50.512Z,5.30
2023-05-24T04:07:17.658Z,5.07
2023-05-24T04:09:54.234Z,4.75
2023-05-24T04:12:21.094Z,4.68
2023-05-24T04:15:00.522Z,4.97
2023-05-24T04:17:34.065Z,4.60
2023-05-24T04:20:03.666Z,4.55
2023-05-24T04:22:31.197Z,4.90
2023-05-24T04:25:09.340Z,5.30
2023-05-24T04:27:42.245Z,4.55
2023-05-24T04:30:27.495Z,5.00
2023-05-24T04:35:27.477Z,5.18
2023-05-24T04:37:55.190Z,4.70
2023-05-24T04:40:23.291Z,5.47
2023-05-24T04:42:57.568Z,4.82
2023-05-24T04:45:27.986Z,5.07
2023-05-24T04:47:59.015Z,5.03
2023-05-24T04:50:26.723Z,5.45
2023-05-24T04:52:53.949Z,4.88
2023-05-24T04:55:23.785Z,4.82
2023-05-24T04:57:52.605Z,4.55
2023-05-24T05:00:20.538Z,4.55
2023-05-24T05:03:06.997Z,4.88
2023-05-24T05:05:34.269Z,5.05
2023-05-24T05:08:05.634Z,4.88
2023-05-24T05:10:37.769Z,5.13
2023-05-24T05:13:12.530Z,4.93
2023-05-24T05:15:50.854Z,4.63
2023-05-24T05:18:21.065Z,5.28
2023-05-24T05:20:52.052Z,4.95
2023-05-24T05:23:19.273Z,6.10
2023-05-24T05:25:49.024Z,4.68
2023-05-24T05:28:17.886Z,4.80
2023-05-24T05:30:44.928Z,4.75
2023-05-24T05:33:20.544Z,5.10
2023-05-24T05:38:48.725Z,4.97
2023-05-24T05:41:28.005Z,5.45
2023-05-24T05:43:55.058Z,5.53
2023-05-24T05:52:03.606Z,5.18
2023-05-24T05:54:47.310Z,4.60
2023-05-24T05:57:25.304Z,4.93
2023-05-24T05:59:54.584Z,4.72
2023-05-24T06:02:39.546Z,5.22
2023-05-24T06:05:07.270Z,5.15
2023-05-24T06:07:42.753Z,5.13
2023-05-24T06:10:12.357Z,4.65
2023-05-24T06:12:47.603Z,5.05
2023-05-24T06:15:15.504Z,5.03
2023-05-24T06:17:53.864Z,5.18
2023-05-24T06:20:24.231Z,4.95
2023-05-24T06:22:54.458Z,5.65
2023-05-24T06:25:34.192Z,5.63
2023-05-24T06:28:05.167Z,5.22
2023-05-24T06:30:45.693Z,4.78
2023-05-24T06:33:23.690Z,5.43
2023-05-24T06:36:02.870Z,4.40
2023-05-24T06:38:44.519Z,5.00
2023-05-24T06:43:55.623Z,4.72
2023-05-24T06:46:29.696Z,5.57
2023-05-24T06:48:56.732Z,6.45
2023-05-24T06:54:14.126Z,5.13
2023-05-24T06:59:23.267Z,5.63
2023-05-24T07:01:54.528Z,6.35
2023-05-24T07:04:26.419Z,5.55
2023-05-24T07:09:45.023Z,5.50
2023-05-24T07:12:19.549Z,6.47
2023-05-24T07:14:51.215Z,7.13
2023-05-24T07:17:20.235Z,7.55
2023-05-24T07:19:51.969Z,7.28
2023-05-24T07:22:29.570Z,7.13
2023-05-24T07:25:12.052Z,6.47
2023-05-24T07:27:46.730Z,8.00
2023-05-24T07:30:27.744Z,7.88
2023-05-24T07:33:09.463Z,7.97
2023-05-24T07:35:39.800Z,7.80
2023-05-24T07:38:09.195Z,9.57
2023-05-24T07:40:36.360Z,10.02
2023-05-24T07:43:04.349Z,9.60
2023-05-24T07:45:44.215Z,10.73
2023-05-24T07:48:11.397Z,9.57
2023-05-24T07:50:39.931Z,10.70
2023-05-24T07:53:18.635Z,10.63
2023-05-24T07:55:50.048Z,10.55
2023-05-24T07:58:20.503Z,10.75
2023-05-24T08:01:00.353Z,11.27
2023-05-24T08:08:55.207Z,10.63
2023-05-24T08:11:28.458Z,11.38
2023-05-24T08:13:57.706Z,11.88
2023-05-24T08:16:30.201Z,11.82
2023-05-24T08:18:58.139Z,11.30
2023-05-24T08:21:31.763Z,12.90
2023-05-24T08:24:09.671Z,12.15
2023-05-24T08:26:44.393Z,11.32
2023-05-24T08:29:29.963Z,12.27
2023-05-24T08:34:38.107Z,11.32
2023-05-24T08:37:07.565Z,11.30
2023-05-24T08:39:38.557Z,11.27
2023-05-24T08:44:54.903Z,9.60
2023-05-24T08:50:10.534Z,9.05
2023-05-24T08:52:44.851Z,8.40
2023-05-24T08:55:23.685Z,9.25
2023-05-24T08:57:58.919Z,9.52
2023-05-24T09:03:22.481Z,7.90
2023-05-24T09:06:02.297Z,8.48
2023-05-24T09:14:01.318Z,7.43
2023-05-24T09:16:30.819Z,7.97
2023-05-24T09:18:58.623Z,7.40
2023-05-24T09:21:27.957Z,7.28
2023-05-24T09:26:51.484Z,7.25
2023-05-24T09:29:32.452Z,7.03
2023-05-24T09:32:07.964Z,7.90
2023-05-24T09:34:44.013Z,7.90
2023-05-24T09:37:30.682Z,6.68
2023-05-24T09:40:06.781Z,7.43
2023-05-24T09:42:36.031Z,6.88
2023-05-24T09:45:12.954Z,6.85
2023-05-24T09:50:14.934Z,7.05
2023-05-24T09:52:45.954Z,6.80
2023-05-24T09:55:20.392Z,6.78
2023-05-24T09:57:56.560Z,7.60
2023-05-24T10:00:35.348Z,6.78
2023-05-24T10:03:04.779Z,6.65
2023-05-24T10:08:24.749Z,7.03
2023-05-24T10:13:39.852Z,7.03
2023-05-24T10:16:16.084Z,6.55
2023-05-24T10:18:58.932Z,7.10
2023-05-24T10:21:31.810Z,6.38
2023-05-24T10:26:57.235Z,6.60
2023-05-24T10:29:36.871Z,6.15
2023-05-24T10:32:05.274Z,6.93
2023-05-24T10:34:46.865Z,6.60
2023-05-24T10:37:15.895Z,6.57
2023-05-24T10:39:48.946Z,6.25
2023-05-24T10:42:32.097Z,6.18
2023-05-24T10:45:01.038Z,6.55
2023-05-24T10:47:31.185Z,6.70
2023-05-24T10:50:01.452Z,6.82
2023-05-24T10:52:40.310Z,6.68
2023-05-24T10:55:13.271Z,6.10
2023-05-24T10:57:41.215Z,6.63
2023-05-24T11:03:09.267Z,5.90
2023-05-24T11:05:49.324Z,5.55
2023-05-24T11:08:43.726Z,5.95
2023-05-24T11:14:02.214Z,5.82
2023-05-24T11:16:38.538Z,5.93
2023-05-24T11:19:14.105Z,6.93
2023-05-24T11:21:46.424Z,5.78
2023-05-24T11:24:19.937Z,5.88
2023-05-24T11:29:38.255Z,5.85
2023-05-24T11:32:09.567Z,6.20
2023-05-24T11:34:47.272Z,5.53
2023-05-24T11:37:18.791Z,5.75
2023-05-24T11:42:39.541Z,4.72
2023-05-24T11:45:11.541Z,5.20
2023-05-24T11:47:43.755Z,4.82
2023-05-24T11:50:17.154Z,4.95
2023-05-24T11:52:57.048Z,4.78
2023-05-24T11:55:44.150Z,4.90
2023-05-24T11:58:32.230Z,4.65
2023-05-24T12:01:09.537Z,4.35
2023-05-24T12:03:36.557Z,4.80
2023-05-24T12:06:06.900Z,4.90
2023-05-24T12:08:42.929Z,4.93
2023-05-24T12:22:00.556Z,5.63
2023-05-24T12:24:30.459Z,5.20
2023-05-24T12:27:07.885Z,5.55
2023-05-24T12:29:42.160Z,6.07
2023-05-24T12:32:28.978Z,5.57
2023-05-24T12:34:58.854Z,5.32
2023-05-24T12:37:38.807Z,5.57
2023-05-24T12:40:32.686Z,6.07
2023-05-24T12:43:10.405Z,5.38
2023-05-24T12:45:38.100Z,5.90
2023-05-24T12:48:17.404Z,6.55
2023-05-24T12:50:48.613Z,6.70
2023-05-24T12:56:19.316Z,6.65
2023-05-24T12:58:57.080Z,6.22
2023-05-24T13:01:26.618Z,6.97
2023-05-24T13:04:04.415Z,6.80
2023-05-24T13:06:38.264Z,6.95
2023-05-24T13:09:14.080Z,6.35
2023-05-24T13:11:43.349Z,6.95
2023-05-24T13:14:13.004Z,6.22
2023-05-24T13:16:49.210Z,6.65
2023-05-24T13:19:30.320Z,6.13
2023-05-24T13:21:57.109Z,5.65
2023-05-24T13:24:24.887Z,5.57
2023-05-24T13:27:02.265Z,5.60
2023-05-24T13:29:45.618Z,5.32
2023-05-24T13:32:20.109Z,5.53
2023-05-24T13:35:15.824Z,4.60
2023-05-24T13:37:49.490Z,5.13
2023-05-24T13:40:19.508Z,4.55
2023-05-24T13:42:49.824Z,3.80
2023-05-24T13:45:19.406Z,3.97
2023-05-24T13:47:47.651Z,4.05
2023-05-24T13:50:17.647Z,4.40
2023-05-24T13:52:54.967Z,4.22
2023-05-24T13:55:24.268Z,3.80
2023-05-24T13:58:02.687Z,4.00
2023-05-24T14:00:34.213Z,4.07
2023-05-24T14:03:02.660Z,3.88
2023-05-24T14:05:45.045Z,4.15
2023-05-24T14:08:24.007Z,4.10
2023-05-24T14:11:05.717Z,4.43
2023-05-24T14:16:14.118Z,4.40
2023-05-24T14:18:41.543Z,4.20
2023-05-24T14:21:25.665Z,3.60
2023-05-24T14:23:52.947Z,3.60
2023-05-24T14:26:22.185Z,3.75
2023-05-24T14:31:51.165Z,3.65
2023-05-24T14:34:21.420Z,3.45
2023-05-24T14:39:31.006Z,3.72
2023-05-24T14:42:05.238Z,3.50
2023-05-24T14:44:37.920Z,3.28
2023-05-24T14:47:15.297Z,3.30
2023-05-24T14:49:54.854Z,2.90
2023-05-24T14:52:39.566Z,3.88
2023-05-24T14:55:16.072Z,3.78
2023-05-24T14:57:46.591Z,3.72
2023-05-24T15:00:28.759Z,4.20
2023-05-24T15:05:52.791Z,6.03
2023-05-24T15:08:20.038Z,4.30
2023-05-24T15:10:59.196Z,4.43
2023-05-24T15:13:34.911Z,4.25
2023-05-24T15:16:04.226Z,4.10
2023-05-24T15:18:43.558Z,3.92
2023-05-24T15:23:54.051Z,3.90
2023-05-24T15:26:36.621Z,3.90
2023-05-24T15:29:16.202Z,3.72
2023-05-24T15:31:45.490Z,3.13
2023-05-24T15:37:03.941Z,3.40
2023-05-24T15:39:39.149Z,3.40
2023-05-24T15:42:08.690Z,4.20
2023-05-24T15:44:47.200Z,4.03
2023-05-24T15:47:23.834Z,4.20
2023-05-24T15:50:00.017Z,4.28
2023-05-24T15:57:49.343Z,3.88
2023-05-24T16:00:21.298Z,4.18
2023-05-24T16:03:02.526Z,3.90
2023-05-24T16:05:31.509Z,3.88
2023-05-24T16:08:01.291Z,3.10
2023-05-24T16:10:45.626Z,3.50
2023-05-24T16:13:15.026Z,3.33
2023-05-24T16:15:48.419Z,3.45
2023-05-24T16:18:23.765Z,3.25
2023-05-24T16:21:02.871Z,2.92
2023-05-24T16:23:39.183Z,3.00
2023-05-24T16:26:06.264Z,3.42
2023-05-24T16:28:36.523Z,3.60
2023-05-24T16:31:18.935Z,3.00
2023-05-24T16:33:46.807Z,2.97
2023-05-24T16:36:25.889Z,2.90
2023-05-24T16:38:52.799Z,2.97
2023-05-24T16:41:38.050Z,3.33
2023-05-24T16:44:08.133Z,2.60
2023-05-24T16:46:35.942Z,2.70
2023-05-24T16:49:29.379Z,3.10
2023-05-24T16:51:56.217Z,3.05
2023-05-24T16:54:25.801Z,2.47
2023-05-24T16:56:57.196Z,3.00
2023-05-24T16:59:34.637Z,2.80
2023-05-24T17:02:03.601Z,2.55
2023-05-24T17:09:53.161Z,3.17
2023-05-24T17:12:32.119Z,3.47
2023-05-24T17:15:04.478Z,3.10
2023-05-24T17:17:33.641Z,3.65
2023-05-24T17:20:03.589Z,3.42
2023-05-24T17:22:32.823Z,3.30
2023-05-24T17:25:09.248Z,3.78
2023-05-24T17:27:48.672Z,3.05
2023-05-24T17:30:16.377Z,3.28
2023-05-24T17:32:46.012Z,3.65
2023-05-24T17:35:14.766Z,3.13
2023-05-24T17:37:42.345Z,3.05
2023-05-24T17:42:57.826Z,2.70
2023-05-24T17:45:29.293Z,2.60
2023-05-24T17:47:56.485Z,2.90
2023-05-24T17:50:31.079Z,2.28
2023-05-24T17:53:02.376Z,2.60
2023-05-24T17:55:30.168Z,2.83
2023-05-24T18:00:49.433Z,2.72
2023-05-24T18:03:27.752Z,2.90
2023-05-24T18:05:58.678Z,2.90
2023-05-24T18:08:32.239Z,2.60
2023-05-24T18:11:04.030Z,2.83
2023-05-24T18:13:31.112Z,3.08
2023-05-24T18:15:58.851Z,2.90
2023-05-24T18:18:34.772Z,2.70
2023-05-24T18:21:01.916Z,2.38
2023-05-24T18:23:44.145Z,2.90
2023-05-24T18:26:15.587Z,3.00
2023-05-24T18:31:24.255Z,3.30
2023-05-24T18:34:01.407Z,4.07
2023-05-24T18:36:34.119Z,2.58
2023-05-24T18:39:01.338Z,2.22
2023-05-24T18:41:41.019Z,2.80
2023-05-24T18:44:08.141Z,2.05
2023-05-24T18:49:27.833Z,1.30
2023-05-24T18:54:36.226Z,1.75
2023-05-24T18:57:06.111Z,1.80
2023-05-24T18:59:46.057Z,2.05
2023-05-24T19:02:16.584Z,2.00
2023-05-24T19:04:51.100Z,2.00
2023-05-24T19:07:20.188Z,1.77
2023-05-24T19:09:59.990Z,1.90
2023-05-24T19:12:29.784Z,1.80
2023-05-24T19:17:38.668Z,2.20
2023-05-24T19:20:16.772Z,2.70
2023-05-24T19:22:52.174Z,2.05
2023-05-24T19:25:30.741Z,2.10
2023-05-24T19:28:00.891Z,2.08
2023-05-24T19:30:28.741Z,2.05
2023-05-24T19:33:02.062Z,2.33
2023-05-24T19:35:41.289Z,2.05
2023-05-24T19:38:08.482Z,2.17
2023-05-24T19:40:47.950Z,2.30
2023-05-24T19:43:17.185Z,2.00
2023-05-24T19:45:45.495Z,2.40
2023-05-24T19:56:17.987Z,2.55
2023-05-24T20:01:37.780Z,2.00
2023-05-24T20:04:05.716Z,2.10
2023-05-24T20:06:34.478Z,2.42
2023-05-24T20:09:07.671Z,2.20
2023-05-24T20:14:15.539Z,2.90
2023-05-24T20:19:31.809Z,4.75
2023-05-24T20:22:01.292Z,2.40
2023-05-24T20:24:31.148Z,2.22
2023-05-24T20:27:07.574Z,2.40
2023-05-24T20:29:48.329Z,2.38
2023-05-24T20:32:21.362Z,2.55
2023-05-24T20:34:51.626Z,2.50
2023-05-24T20:37:33.224Z,2.20
2023-05-24T20:40:02.853Z,2.10
2023-05-24T20:42:40.080Z,2.33
2023-05-24T20:45:11.909Z,2.40
2023-05-24T20:47:50.026Z,2.63
2023-05-24T20:50:19.185Z,2.63
2023-05-24T20:52:46.779Z,2.30
2023-05-24T20:58:11.275Z,1.90
2023-05-24T21:00:51.510Z,1.98
2023-05-24T21:03:26.861Z,1.90
2023-05-24T21:05:54.603Z,2.35
2023-05-24T21:11:13.800Z,2.25
2023-05-24T21:13:41.343Z,2.00
2023-05-24T21:16:08.649Z,2.20
2023-05-24T21:18:35.461Z,2.08
2023-05-24T21:21:02.337Z,2.40
2023-05-24T21:23:29.100Z,2.15
2023-05-24T21:25:55.898Z,2.90
2023-05-24T21:28:22.770Z,2.10
2023-05-24T21:30:49.804Z,2.40
2023-05-24T21:33:16.957Z,2.35
2023-05-24T21:35:44.012Z,2.08
2023-05-24T21:38:11.082Z,2.35
2023-05-24T21:40:37.955Z,2.08
2023-05-24T21:43:05.464Z,2.30
2023-05-24T21:45:32.315Z,2.63
2023-05-24T21:47:59.164Z,2.00
2023-05-24T21:50:25.998Z,2.47
2023-05-24T21:52:52.740Z,2.60
2023-05-24T21:55:19.575Z,2.33
2023-05-24T21:57:46.398Z,2.92
2023-05-24T22:00:14.173Z,3.25
2023-05-24T22:02:41.528Z,3.20
2023-05-24T22:05:08.536Z,2.60
2023-05-24T22:07:37.146Z,2.75
2023-05-24T22:10:07.523Z,2.53
2023-05-24T22:12:35.071Z,2.47
2023-05-24T22:15:02.069Z,2.47
2023-05-24T22:17:33.172Z,2.30
2023-05-24T22:20:02.733Z,2.47
2023-05-24T22:22:29.978Z,2.40
2023-05-24T22:24:56.996Z,2.58
2023-05-24T22:27:24.153Z,2.45
2023-05-24T22:29:51.195Z,2.80
2023-05-24T22:32:18.054Z,3.03
2023-05-24T22:34:45.024Z,2.65
2023-05-24T22:37:12.237Z,2.60
2023-05-24T22:39:39.906Z,2.72
2023-05-24T22:42:06.720Z,2.70
2023-05-24T22:44:33.533Z,2.90
2023-05-24T22:47:02.159Z,2.70
2023-05-24T22:49:29.612Z,2.95
2023-05-24T22:51:56.489Z,3.00
2023-05-24T22:54:23.269Z,2.47
2023-05-24T22:56:50.069Z,2.50
2023-05-24T22:59:16.862Z,2.80
2023-05-24T23:01:44.866Z,2.75
2023-05-24T23:04:21.239Z,2.65
2023-05-24T23:06:53.223Z,4.20
2023-05-24T23:09:29.264Z,2.90
2023-05-24T23:11:58.752Z,4.82
2023-05-24T23:14:25.760Z,2.80
2023-05-24T23:16:52.585Z,2.97
2023-05-24T23:19:22.248Z,3.28
2023-05-24T23:21:52.514Z,2.97
2023-05-24T23:24:19.614Z,3.03
2023-05-24T23:26:46.471Z,3.00
2023-05-24T23:29:13.409Z,4.70
2023-05-24T23:31:40.373Z,3.10
2023-05-24T23:34:07.427Z,2.80
2023-05-24T23:36:34.185Z,2.72
2023-05-24T23:39:01.058Z,2.53
2023-05-24T23:41:27.974Z,3.28
2023-05-24T23:43:54.726Z,3.55
2023-05-24T23:46:21.527Z,3.33
2023-05-24T23:48:48.402Z,3.28
2023-05-24T23:51:15.175Z,3.53
2023-05-24T23:53:41.917Z,3.40
2023-05-24T23:56:08.731Z,3.33
2023-05-24T23:58:36.156Z,4.05
